createdAt,value
2023-05-17T00:00:39.854Z,8.48
2023-05-17T00:03:06.368Z,8.77
2023-05-17T00:05:35.419Z,8.45
2023-05-17T00:08:01.951Z,9.30
2023-05-17T00:10:28.410Z,8.77
2023-05-17T00:12:57.347Z,8.35
2023-05-17T00:15:23.765Z,8.65
2023-05-17T00:17:50.356Z,8.80
2023-05-17T00:20:16.912Z,8.90
2023-05-17T00:22:45.671Z,9.00
2023-05-17T00:25:14.513Z,8.80
2023-05-17T00:27:40.950Z,8.57
2023-05-17T00:30:09.820Z,9.02
2023-05-17T00:32:36.390Z,9.93
2023-05-17T00:35:03.078Z,8.82
2023-05-17T00:37:30.040Z,8.95
2023-05-17T00:39:56.470Z,8.80
2023-05-17T00:42:23.033Z,9.27
2023-05-17T00:44:49.511Z,8.40
2023-05-17T00:47:16.043Z,8.50
2023-05-17T00:49:45.677Z,8.20
2023-05-17T00:52:12.208Z,7.88
2023-05-17T00:54:39.470Z,9.00
2023-05-17T00:57:06.071Z,8.45
2023-05-17T00:59:32.672Z,8.43
2023-05-17T01:01:59.277Z,8.07
2023-05-17T01:04:25.830Z,8.93
2023-05-17T01:06:52.280Z,8.57
2023-05-17T01:09:18.872Z,8.50
2023-05-17T01:11:56.363Z,8.70
2023-05-17T01:14:38.304Z,8.10
2023-05-17T01:17:06.652Z,8.15
2023-05-17T01:19:50.531Z,8.20
2023-05-17T01:22:35.972Z,8.23
2023-05-17T01:25:23.395Z,8.35
2023-05-17T01:27:49.921Z,8.25
2023-05-17T01:30:18.168Z,8.05
2023-05-17T01:32:44.683Z,8.38
2023-05-17T01:35:11.898Z,8.00
2023-05-17T01:37:40.552Z,8.93
2023-05-17T01:40:09.007Z,8.05
2023-05-17T01:42:38.945Z,8.32
2023-05-17T01:45:08.465Z,8.27
2023-05-17T01:48:10.713Z,7.95
2023-05-17T01:50:37.400Z,8.75
2023-05-17T01:53:21.423Z,8.65
2023-05-17T01:55:49.960Z,8.10
2023-05-17T01:58:16.616Z,8.23
2023-05-17T02:00:43.932Z,8.55
2023-05-17T02:03:16.927Z,7.78
2023-05-17T02:05:43.411Z,7.85
2023-05-17T02:08:09.952Z,8.07
2023-05-17T02:10:36.472Z,7.38
2023-05-17T02:13:02.963Z,8.57
2023-05-17T02:15:32.541Z,7.75
2023-05-17T02:17:59.143Z,8.02
2023-05-17T02:20:25.663Z,7.45
2023-05-17T02:22:52.173Z,8.00
2023-05-17T02:25:18.799Z,7.65
2023-05-17T02:27:45.378Z,7.97
2023-05-17T02:30:14.526Z,7.65
2023-05-17T02:32:42.270Z,7.43
2023-05-17T02:35:09.500Z,7.55
2023-05-17T02:37:36.640Z,7.45
2023-05-17T02:40:04.271Z,7.35
2023-05-17T02:42:30.778Z,7.70
2023-05-17T02:44:58.105Z,7.53
2023-05-17T02:47:24.690Z,7.30
2023-05-17T02:49:51.158Z,7.18
2023-05-17T02:52:19.724Z,7.20
2023-05-17T02:54:46.260Z,7.78
2023-05-17T02:57:12.742Z,7.40
2023-05-17T02:59:39.237Z,7.57
2023-05-17T03:02:06.080Z,7.35
2023-05-17T03:04:32.939Z,7.32
2023-05-17T03:06:59.549Z,7.38
2023-05-17T03:09:26.102Z,7.60
2023-05-17T03:11:54.883Z,7.28
2023-05-17T03:14:21.437Z,7.50
2023-05-17T03:16:50.271Z,7.07
2023-05-17T03:19:16.832Z,7.00
2023-05-17T03:21:43.428Z,7.20
2023-05-17T03:24:09.880Z,7.07
2023-05-17T03:26:36.381Z,7.10
2023-05-17T03:29:05.272Z,7.55
2023-05-17T03:31:34.203Z,6.80
2023-05-17T03:34:03.141Z,8.10
2023-05-17T03:36:30.140Z,7.78
2023-05-17T03:38:59.139Z,7.43
2023-05-17T03:41:25.579Z,7.45
2023-05-17T03:43:52.080Z,7.93
2023-05-17T03:46:18.639Z,7.97
2023-05-17T03:48:45.204Z,8.18
2023-05-17T03:51:11.829Z,8.10
2023-05-17T03:53:43.496Z,7.93
2023-05-17T03:56:10.559Z,7.65
2023-05-17T03:58:37.069Z,8.02
2023-05-17T04:01:04.029Z,7.60
2023-05-17T04:03:30.898Z,7.85
2023-05-17T04:06:06.962Z,7.95
2023-05-17T04:08:33.924Z,8.45
2023-05-17T04:11:01.458Z,8.35
2023-05-17T04:13:28.003Z,8.40
2023-05-17T04:15:54.556Z,7.95
2023-05-17T04:18:21.186Z,8.50
2023-05-17T04:20:47.833Z,8.10
2023-05-17T04:23:14.389Z,8.70
2023-05-17T04:25:41.038Z,8.63
2023-05-17T04:28:09.862Z,8.50
2023-05-17T04:30:38.664Z,8.88
2023-05-17T04:33:05.250Z,8.63
2023-05-17T04:35:31.955Z,9.32
2023-05-17T04:37:58.520Z,8.70
2023-05-17T04:40:25.189Z,8.63
2023-05-17T04:42:52.292Z,8.82
2023-05-17T04:45:18.764Z,8.82
2023-05-17T04:47:45.924Z,8.85
2023-05-17T04:50:12.761Z,8.50
2023-05-17T04:52:44.767Z,9.05
2023-05-17T04:55:11.348Z,8.52
2023-05-17T04:57:37.845Z,9.63
2023-05-17T05:00:10.372Z,9.98
2023-05-17T05:02:36.966Z,9.25
2023-05-17T05:05:05.122Z,9.30
2023-05-17T05:07:31.701Z,9.43
2023-05-17T05:09:58.150Z,10.52
2023-05-17T05:12:24.734Z,10.40
2023-05-17T05:14:51.247Z,9.82
2023-05-17T05:17:20.137Z,10.40
2023-05-17T05:19:46.795Z,9.88
2023-05-17T05:22:15.653Z,10.10
2023-05-17T05:24:42.136Z,9.85
2023-05-17T05:27:08.674Z,9.70
2023-05-17T05:29:35.231Z,9.65
2023-05-17T05:32:02.379Z,9.85
2023-05-17T05:34:29.563Z,10.65
2023-05-17T05:36:56.512Z,9.95
2023-05-17T05:39:23.031Z,9.98
2023-05-17T05:41:51.920Z,10.82
2023-05-17T05:44:18.402Z,10.65
2023-05-17T05:46:44.889Z,10.65
2023-05-17T05:49:14.033Z,10.07
2023-05-17T05:51:40.499Z,10.77
2023-05-17T05:54:06.958Z,11.35
2023-05-17T05:56:33.482Z,10.13
2023-05-17T05:58:59.957Z,10.95
2023-05-17T06:01:28.879Z,11.25
2023-05-17T06:03:55.944Z,11.50
2023-05-17T06:06:22.610Z,10.70
2023-05-17T06:08:49.273Z,10.52
2023-05-17T06:11:15.746Z,10.70
2023-05-17T06:13:42.283Z,10.95
2023-05-17T06:16:08.803Z,11.18
2023-05-17T06:18:37.746Z,11.45
2023-05-17T06:21:04.480Z,13.25
2023-05-17T06:23:31.145Z,13.52
2023-05-17T06:25:57.797Z,14.75
2023-05-17T06:28:24.466Z,14.68
2023-05-17T06:30:50.970Z,14.35
2023-05-17T06:33:19.868Z,14.00
2023-05-17T06:35:56.281Z,13.85
2023-05-17T06:38:24.410Z,13.02
2023-05-17T06:40:54.716Z,13.57
2023-05-17T06:43:21.345Z,13.07
2023-05-17T06:45:50.176Z,12.68
2023-05-17T06:48:16.894Z,14.38
2023-05-17T06:50:43.516Z,14.30
2023-05-17T06:53:10.155Z,14.00
2023-05-17T06:55:36.759Z,13.45
2023-05-17T06:58:05.565Z,13.95
2023-05-17T07:00:32.594Z,14.65
2023-05-17T07:03:00.059Z,14.90
2023-05-17T07:05:29.507Z,14.07
2023-05-17T07:07:56.697Z,14.43
2023-05-17T07:10:23.190Z,13.70
2023-05-17T07:12:49.803Z,15.02
2023-05-17T07:15:16.417Z,13.65
2023-05-17T07:17:42.939Z,14.38
2023-05-17T07:20:09.828Z,14.63
2023-05-17T07:22:36.881Z,15.18
2023-05-17T07:25:03.579Z,14.48
2023-05-17T07:27:30.064Z,14.45
2023-05-17T07:29:56.588Z,15.23
2023-05-17T07:32:23.088Z,14.50
2023-05-17T07:34:54.615Z,14.15
2023-05-17T07:37:21.608Z,13.88
2023-05-17T07:39:48.111Z,14.35
2023-05-17T07:42:14.695Z,13.75
2023-05-17T07:44:41.389Z,14.07
2023-05-17T07:47:08.029Z,14.30
2023-05-17T07:49:34.599Z,15.90
2023-05-17T07:52:02.865Z,13.90
2023-05-17T07:54:29.692Z,14.35
2023-05-17T07:56:56.303Z,14.20
2023-05-17T07:59:25.104Z,13.35
2023-05-17T08:01:54.965Z,14.35
2023-05-17T08:04:21.504Z,14.32
2023-05-17T08:06:48.808Z,13.85
2023-05-17T08:09:18.597Z,13.40
2023-05-17T08:11:47.939Z,14.73
2023-05-17T08:14:14.826Z,13.55
2023-05-17T08:16:45.487Z,13.43
2023-05-17T08:19:15.975Z,13.43
2023-05-17T08:21:42.906Z,14.07
2023-05-17T08:24:11.943Z,14.00
2023-05-17T08:26:38.578Z,13.60
2023-05-17T08:29:05.305Z,13.65
2023-05-17T08:31:32.466Z,13.80
2023-05-17T08:33:59.070Z,13.57
2023-05-17T08:36:26.967Z,13.15
2023-05-17T08:38:53.617Z,13.93
2023-05-17T08:41:20.823Z,13.80
2023-05-17T08:43:51.109Z,13.50
2023-05-17T08:46:21.328Z,12.90
2023-05-17T08:48:50.631Z,14.40
2023-05-17T08:51:17.704Z,13.90
2023-05-17T08:53:47.100Z,14.05
2023-05-17T08:56:16.640Z,13.48
2023-05-17T08:58:56.407Z,13.43
2023-05-17T09:01:25.886Z,13.00
2023-05-17T09:03:53.903Z,15.55
2023-05-17T09:06:20.767Z,15.15
2023-05-17T09:08:47.342Z,15.80
2023-05-17T09:11:13.930Z,15.75
2023-05-17T09:13:40.468Z,17.33
2023-05-17T09:16:15.063Z,17.10
2023-05-17T09:18:41.733Z,15.20
2023-05-17T09:21:09.799Z,18.65
2023-05-17T09:23:37.941Z,19.88
2023-05-17T09:26:10.438Z,19.92
2023-05-17T09:28:38.370Z,30.25
2023-05-17T09:31:08.835Z,26.48
2023-05-17T09:33:35.718Z,30.53
2023-05-17T09:36:07.483Z,40.80
2023-05-17T09:38:33.989Z,43.70
2023-05-17T09:41:00.910Z,17.52
2023-05-17T09:43:27.567Z,36.25
2023-05-17T09:45:57.939Z,34.83
2023-05-17T09:48:25.842Z,17.33
2023-05-17T09:50:52.451Z,23.83
2023-05-17T09:53:22.702Z,30.23
2023-05-17T09:55:49.222Z,41.33
2023-05-17T09:58:15.795Z,25.33
2023-05-17T10:00:42.314Z,32.67
2023-05-17T10:03:10.560Z,36.05
2023-05-17T10:05:37.279Z,33.38
2023-05-17T10:08:04.696Z,19.73
2023-05-17T10:10:31.205Z,17.92
2023-05-17T10:13:00.166Z,22.92
2023-05-17T10:15:26.865Z,18.92
2023-05-17T10:17:53.945Z,13.57
2023-05-17T10:20:22.868Z,14.15
2023-05-17T10:22:49.890Z,14.13
2023-05-17T10:25:16.378Z,13.75
2023-05-17T10:27:42.963Z,13.65
2023-05-17T10:30:10.014Z,17.73
2023-05-17T10:32:36.694Z,17.70
2023-05-17T10:35:11.439Z,25.52
2023-05-17T10:37:40.394Z,21.45
2023-05-17T10:40:07.315Z,16.27
2023-05-17T10:42:33.910Z,15.95
2023-05-17T10:45:01.702Z,16.42
2023-05-17T10:47:34.621Z,13.55
2023-05-17T10:50:01.750Z,13.27
2023-05-17T10:52:28.222Z,13.90
2023-05-17T10:54:55.923Z,14.80
2023-05-17T10:57:49.665Z,15.15
2023-05-17T11:00:20.346Z,17.98
2023-05-17T11:02:49.030Z,14.13
2023-05-17T11:05:25.373Z,15.23
2023-05-17T11:07:51.911Z,16.80
2023-05-17T11:10:18.606Z,21.05
2023-05-17T11:12:46.974Z,19.20
2023-05-17T11:15:14.296Z,22.98
2023-05-17T11:17:44.235Z,22.45
2023-05-17T11:20:29.835Z,18.77
2023-05-17T11:22:59.010Z,12.88
2023-05-17T11:25:32.516Z,18.80
2023-05-17T11:27:59.132Z,19.33
2023-05-17T11:30:29.415Z,19.17
2023-05-17T11:33:03.245Z,23.03
2023-05-17T11:35:36.568Z,19.40
2023-05-17T11:38:15.441Z,19.23
2023-05-17T11:40:42.234Z,19.02
2023-05-17T11:43:19.164Z,17.92
2023-05-17T11:45:54.982Z,17.90
2023-05-17T11:48:24.451Z,19.15
2023-05-17T11:50:51.670Z,15.60
2023-05-17T11:53:19.018Z,16.80
2023-05-17T11:55:47.470Z,19.60
2023-05-17T11:58:14.654Z,19.13
2023-05-17T12:00:42.134Z,19.08
2023-05-17T12:03:21.855Z,19.85
2023-05-17T12:05:49.047Z,19.75
2023-05-17T12:08:16.316Z,19.00
2023-05-17T12:10:46.760Z,18.77
2023-05-17T12:13:13.345Z,18.33
2023-05-17T12:15:39.837Z,18.45
2023-05-17T12:18:06.412Z,18.20
2023-05-17T12:20:35.324Z,18.73
2023-05-17T12:23:02.056Z,18.20
2023-05-17T12:25:29.727Z,17.85
2023-05-17T12:28:15.281Z,18.33
2023-05-17T12:30:41.831Z,17.70
2023-05-17T12:33:08.534Z,16.15
2023-05-17T12:35:35.052Z,15.70
2023-05-17T12:38:02.010Z,14.68
2023-05-17T12:40:28.618Z,16.92
2023-05-17T12:43:02.006Z,16.33
2023-05-17T12:45:28.467Z,16.05
2023-05-17T12:47:55.034Z,16.23
2023-05-17T12:50:31.216Z,16.33
2023-05-17T12:52:57.868Z,16.90
2023-05-17T12:55:24.809Z,15.70
2023-05-17T12:57:51.771Z,15.90
2023-05-17T13:00:18.725Z,16.52
2023-05-17T13:02:45.297Z,16.85
2023-05-17T13:05:23.984Z,16.88
2023-05-17T13:07:50.510Z,15.65
2023-05-17T13:10:25.911Z,15.70
2023-05-17T13:12:58.794Z,15.55
2023-05-17T13:15:31.773Z,14.15
2023-05-17T13:18:00.082Z,14.40
2023-05-17T13:20:27.053Z,14.43
2023-05-17T13:22:53.653Z,14.60
2023-05-17T13:25:20.483Z,13.88
2023-05-17T13:27:49.341Z,14.80
2023-05-17T13:30:16.331Z,14.93
2023-05-17T13:32:43.189Z,12.38
2023-05-17T13:35:10.489Z,11.57
2023-05-17T13:37:37.568Z,11.25
2023-05-17T13:40:04.324Z,12.55
2023-05-17T13:42:33.164Z,11.60
2023-05-17T13:45:01.932Z,10.80
2023-05-17T13:47:31.689Z,12.82
2023-05-17T13:50:01.397Z,9.50
2023-05-17T13:52:28.040Z,8.68
2023-05-17T13:54:54.807Z,8.20
2023-05-17T13:57:21.837Z,8.95
2023-05-17T13:59:48.296Z,8.35
2023-05-17T14:02:15.227Z,8.02
2023-05-17T14:04:41.692Z,8.13
2023-05-17T14:07:08.244Z,6.95
2023-05-17T14:09:35.512Z,7.65
2023-05-17T14:12:02.050Z,7.65
2023-05-17T14:14:30.940Z,8.68
2023-05-17T14:16:57.826Z,7.10
2023-05-17T14:19:24.482Z,7.22
2023-05-17T14:21:53.889Z,7.32
2023-05-17T14:24:20.454Z,7.40
2023-05-17T14:26:46.994Z,7.45
2023-05-17T14:29:13.605Z,7.43
2023-05-17T14:31:40.116Z,7.80
2023-05-17T14:34:06.608Z,8.23
2023-05-17T14:36:36.281Z,7.45
2023-05-17T14:39:03.907Z,7.45
2023-05-17T14:41:30.552Z,7.40
2023-05-17T14:43:57.133Z,8.10
2023-05-17T14:46:26.103Z,7.03
2023-05-17T14:48:52.716Z,6.97
2023-05-17T14:51:19.474Z,7.55
2023-05-17T14:53:46.639Z,6.15
2023-05-17T14:56:15.386Z,6.70
2023-05-17T14:58:44.528Z,6.63
2023-05-17T15:01:11.106Z,6.68
2023-05-17T15:03:39.956Z,6.55
2023-05-17T15:06:09.409Z,6.38
2023-05-17T15:08:39.355Z,6.80
2023-05-17T15:11:08.390Z,6.20
2023-05-17T15:13:34.935Z,6.70
2023-05-17T15:16:04.861Z,7.07
2023-05-17T15:18:31.518Z,6.55
2023-05-17T15:20:58.060Z,6.47
2023-05-17T15:23:24.532Z,6.43
2023-05-17T15:25:51.158Z,7.13
2023-05-17T15:28:20.063Z,7.03
2023-05-17T15:30:47.110Z,6.22
2023-05-17T15:33:13.763Z,6.80
2023-05-17T15:35:41.760Z,7.05
2023-05-17T15:38:08.763Z,6.70
2023-05-17T15:40:35.326Z,7.40
2023-05-17T15:43:01.942Z,8.20
2023-05-17T15:45:29.045Z,7.43
2023-05-17T15:47:57.266Z,7.88
2023-05-17T15:50:23.888Z,8.25
2023-05-17T15:52:50.570Z,7.85
2023-05-17T15:55:17.906Z,7.70
2023-05-17T15:57:44.523Z,7.53
2023-05-17T16:00:11.159Z,7.75
2023-05-17T16:02:37.836Z,7.20
2023-05-17T16:05:04.585Z,8.30
2023-05-17T16:07:31.358Z,7.70
2023-05-17T16:10:00.454Z,7.18
2023-05-17T16:12:27.094Z,7.18
2023-05-17T16:14:53.665Z,7.45
2023-05-17T16:17:20.307Z,7.45
2023-05-17T16:19:46.894Z,7.28
2023-05-17T16:22:14.086Z,7.35
2023-05-17T16:24:40.728Z,6.93
2023-05-17T16:27:08.160Z,7.60
2023-05-17T16:29:39.811Z,7.97
2023-05-17T16:32:07.378Z,7.90
2023-05-17T16:34:33.884Z,7.68
2023-05-17T16:37:00.808Z,7.00
2023-05-17T16:39:28.773Z,7.07
2023-05-17T16:41:55.618Z,7.10
2023-05-17T16:44:24.491Z,7.00
2023-05-17T16:46:51.663Z,7.10
2023-05-17T16:49:20.266Z,7.18
2023-05-17T16:51:46.833Z,6.70
2023-05-17T16:54:13.491Z,6.90
2023-05-17T16:56:40.019Z,7.60
2023-05-17T16:59:06.505Z,8.05
2023-05-17T17:01:33.165Z,7.50
2023-05-17T17:03:59.789Z,8.25
2023-05-17T17:06:26.366Z,7.03
2023-05-17T17:08:53.122Z,7.68
2023-05-17T17:11:22.574Z,7.10
2023-05-17T17:13:49.465Z,7.70
2023-05-17T17:16:16.038Z,7.30
2023-05-17T17:18:42.658Z,6.90
2023-05-17T17:21:09.219Z,8.20
2023-05-17T17:23:35.799Z,7.00
2023-05-17T17:26:02.232Z,7.40
2023-05-17T17:28:28.836Z,7.40
2023-05-17T17:30:55.242Z,6.97
2023-05-17T17:33:22.018Z,7.60
2023-05-17T17:35:49.072Z,6.93
2023-05-17T17:38:16.191Z,6.97
2023-05-17T17:40:42.842Z,6.45
2023-05-17T17:43:11.717Z,5.85
2023-05-17T17:45:38.473Z,6.65
2023-05-17T17:48:05.174Z,6.43
2023-05-17T17:50:33.737Z,6.30
2023-05-17T17:53:00.954Z,6.07
2023-05-17T17:55:29.753Z,6.28
2023-05-17T17:57:58.253Z,5.75
2023-05-17T18:00:24.808Z,6.32
2023-05-17T18:02:53.458Z,5.03
2023-05-17T18:05:20.116Z,5.85
2023-05-17T18:07:46.611Z,5.32
2023-05-17T18:10:15.481Z,5.60
2023-05-17T18:12:41.992Z,5.22
2023-05-17T18:15:10.829Z,6.13
2023-05-17T18:17:37.888Z,5.45
2023-05-17T18:20:06.827Z,5.30
2023-05-17T18:22:33.365Z,5.43
2023-05-17T18:25:02.022Z,5.72
2023-05-17T18:27:28.556Z,5.47
2023-05-17T18:29:55.090Z,5.28
2023-05-17T18:32:21.616Z,5.20
2023-05-17T18:34:48.179Z,5.10
2023-05-17T18:37:15.234Z,4.80
2023-05-17T18:39:44.881Z,4.93
2023-05-17T18:42:11.345Z,5.50
2023-05-17T18:44:37.907Z,5.20
2023-05-17T18:47:04.631Z,5.07
2023-05-17T18:49:31.414Z,5.38
2023-05-17T18:51:59.551Z,5.18
2023-05-17T18:54:26.572Z,4.80
2023-05-17T18:56:53.168Z,5.43
2023-05-17T18:59:19.721Z,5.43
2023-05-17T19:01:46.370Z,5.50
2023-05-17T19:04:13.895Z,5.93
2023-05-17T19:06:43.494Z,5.82
2023-05-17T19:09:10.092Z,5.78
2023-05-17T19:11:36.928Z,5.20
2023-05-17T19:14:05.884Z,5.50
2023-05-17T19:16:32.465Z,5.60
2023-05-17T19:18:59.024Z,6.30
2023-05-17T19:21:27.903Z,5.78
2023-05-17T19:23:54.485Z,5.72
2023-05-17T19:26:23.293Z,5.60
2023-05-17T19:28:52.265Z,5.82
2023-05-17T19:31:18.903Z,5.65
2023-05-17T19:33:45.541Z,6.07
2023-05-17T19:36:12.464Z,5.15
2023-05-17T19:38:39.084Z,5.45
2023-05-17T19:41:05.620Z,5.43
2023-05-17T19:43:35.732Z,5.45
2023-05-17T19:46:03.367Z,5.55
2023-05-17T19:48:32.285Z,5.80
2023-05-17T19:51:01.170Z,5.82
2023-05-17T19:53:31.890Z,6.15
2023-05-17T19:56:08.301Z,6.47
2023-05-17T19:58:35.326Z,6.63
2023-05-17T20:01:02.092Z,6.70
2023-05-17T20:03:28.925Z,6.68
2023-05-17T20:05:55.621Z,6.55
2023-05-17T20:08:22.207Z,6.63
2023-05-17T20:10:51.197Z,6.95
2023-05-17T20:13:19.709Z,6.97
2023-05-17T20:15:46.232Z,7.03
2023-05-17T20:18:12.923Z,6.47
2023-05-17T20:20:39.522Z,6.72
2023-05-17T20:23:08.340Z,6.32
2023-05-17T20:25:37.619Z,6.20
2023-05-17T20:28:04.179Z,6.47
2023-05-17T20:30:31.037Z,6.93
2023-05-17T20:32:57.802Z,5.90
2023-05-17T20:35:24.718Z,6.30
2023-05-17T20:37:53.502Z,5.97
2023-05-17T20:40:20.103Z,5.53
2023-05-17T20:42:48.129Z,6.07
2023-05-17T20:45:17.877Z,5.63
2023-05-17T20:47:44.534Z,5.57
2023-05-17T20:50:14.143Z,5.80
2023-05-17T20:52:40.866Z,5.50
2023-05-17T20:55:10.439Z,5.22
2023-05-17T20:57:37.023Z,5.03
2023-05-17T21:00:06.078Z,5.35
2023-05-17T21:02:35.005Z,5.00
2023-05-17T21:05:03.347Z,5.38
2023-05-17T21:07:31.969Z,5.20
2023-05-17T21:09:58.422Z,5.05
2023-05-17T21:12:27.260Z,4.65
2023-05-17T21:15:07.947Z,4.78
2023-05-17T21:17:40.498Z,4.75
2023-05-17T21:20:07.318Z,4.60
2023-05-17T21:22:33.814Z,4.45
2023-05-17T21:25:00.469Z,4.43
2023-05-17T21:27:27.548Z,4.65
2023-05-17T21:29:54.087Z,4.90
2023-05-17T21:32:20.728Z,4.43
2023-05-17T21:34:50.996Z,4.55
2023-05-17T21:37:19.148Z,4.55
2023-05-17T21:39:45.734Z,4.22
2023-05-17T21:42:14.700Z,4.60
2023-05-17T21:44:43.567Z,4.53
2023-05-17T21:47:10.440Z,4.18
2023-05-17T21:49:37.017Z,4.68
2023-05-17T21:52:03.718Z,4.43
2023-05-17T21:54:30.200Z,4.43
2023-05-17T21:56:56.667Z,4.57
2023-05-17T21:59:24.955Z,4.25
2023-05-17T22:01:54.004Z,4.97
2023-05-17T22:04:20.666Z,4.25
2023-05-17T22:06:47.106Z,4.25
2023-05-17T22:09:14.684Z,4.22
2023-05-17T22:11:41.256Z,4.30
2023-05-17T22:14:07.896Z,4.40
2023-05-17T22:16:35.109Z,3.95
2023-05-17T22:19:01.800Z,4.15
2023-05-17T22:21:28.689Z,3.75
2023-05-17T22:23:55.651Z,3.90
2023-05-17T22:26:24.676Z,4.38
2023-05-17T22:28:51.807Z,4.43
2023-05-17T22:32:54.625Z,4.72
2023-05-17T22:35:24.331Z,4.63
2023-05-17T22:37:53.336Z,4.10
2023-05-17T22:40:22.466Z,3.92
2023-05-17T22:42:52.072Z,4.45
2023-05-17T22:45:18.848Z,4.00
2023-05-17T22:47:47.786Z,4.70
2023-05-17T22:50:15.687Z,3.95
2023-05-17T22:52:46.425Z,3.88
2023-05-17T22:55:13.187Z,4.40
2023-05-17T22:57:42.045Z,4.07
2023-05-17T23:00:11.381Z,4.40
2023-05-17T23:02:38.288Z,4.20
2023-05-17T23:05:05.993Z,3.80
2023-05-17T23:07:38.097Z,4.30
2023-05-17T23:10:05.642Z,4.43
2023-05-17T23:12:37.137Z,4.18
2023-05-17T23:15:05.103Z,3.75
2023-05-17T23:17:36.667Z,4.00
2023-05-17T23:20:10.505Z,3.90
2023-05-17T23:22:39.704Z,4.00
2023-05-17T23:25:11.638Z,4.40
2023-05-17T23:27:40.588Z,3.80
2023-05-17T23:30:07.886Z,4.07
2023-05-17T23:32:34.884Z,3.65
2023-05-17T23:35:03.762Z,3.75
2023-05-17T23:37:33.623Z,3.72
2023-05-17T23:40:00.768Z,3.85
2023-05-17T23:42:29.504Z,3.80
2023-05-17T23:44:58.730Z,3.53
2023-05-17T23:47:28.073Z,3.65
2023-05-17T23:49:58.709Z,3.40
2023-05-17T23:52:29.949Z,3.20
2023-05-17T23:54:58.983Z,3.10
2023-05-17T23:57:25.801Z,3.53
2023-05-17T23:59:52.564Z,3.67
